Terminal Aerodrome Forecast
Issued by NWS

Home | Current Version | Previous Version | Text Only | Print | Product List | Glossary On
Versions: 1 2 3 4 5 6 7 8 9 10 11 12 13 14 15 16 17 18 19 20 21 22 23
000
FTUS42 KKEY 260906 AAA
TAFMTH
TAF AMD
KMTH 260906Z 2609/2706 27014G17KT P6SM BKN040
     FM261600 30021G27KT P6SM VCSH SCT040 BKN060
     FM262300 32023KT P6SM SCT040
     FM270400 32016KT P6SM FEW035 SCT060=

USA.gov is the U.S. government's official web portal to all federal, state and local government web resources and services.